createdAt,value
2018-04-27T00:01:02.104Z,16.73
2018-04-27T00:03:28.641Z,16.91
2018-04-27T00:05:59.050Z,16.84
2018-04-27T00:08:25.850Z,16.62
2018-04-27T00:10:52.461Z,16.70
2018-04-27T00:13:19.125Z,16.58
2018-04-27T00:15:46.814Z,16.52
2018-04-27T00:18:13.421Z,16.42
2018-04-27T00:20:40.052Z,16.30
2018-04-27T00:23:06.704Z,16.07
2018-04-27T00:25:34.554Z,16.01
2018-04-27T00:28:01.227Z,15.92
2018-04-27T00:30:27.917Z,15.91
2018-04-27T00:32:54.535Z,16.39
2018-04-27T00:35:21.301Z,16.52
2018-04-27T00:37:48.639Z,16.04
2018-04-27T00:40:15.193Z,15.91
2018-04-27T00:42:41.894Z,15.97
2018-04-27T00:45:18.745Z,15.61
2018-04-27T00:47:45.816Z,15.63
2018-04-27T00:50:12.390Z,15.80
2018-04-27T00:52:50.899Z,15.60
2018-04-27T00:55:18.546Z,15.49
2018-04-27T00:57:45.197Z,15.56
2018-04-27T01:00:11.921Z,15.94
2018-04-27T01:02:38.935Z,16.16
2018-04-27T01:05:06.810Z,16.42
2018-04-27T01:07:33.407Z,16.24
2018-04-27T01:10:00.065Z,16.14
2018-04-27T01:12:27.172Z,15.86
2018-04-27T01:14:54.097Z,15.82
2018-04-27T01:17:20.677Z,15.93
2018-04-27T01:19:47.415Z,15.82
2018-04-27T01:22:14.131Z,15.34
2018-04-27T01:24:41.763Z,15.91
2018-04-27T01:27:08.415Z,16.04
2018-04-27T01:29:35.077Z,16.15
2018-04-27T01:32:01.742Z,16.15
2018-04-27T01:34:32.494Z,16.20
2018-04-27T01:36:59.231Z,15.68
2018-04-27T01:39:25.877Z,15.56
2018-04-27T01:41:52.728Z,15.47
2018-04-27T01:44:20.525Z,15.73
2018-04-27T01:46:47.493Z,15.97
2018-04-27T01:49:14.428Z,16.04
2018-04-27T01:51:41.085Z,16.04
2018-04-27T01:54:08.728Z,15.96
2018-04-27T01:56:35.421Z,16.08
2018-04-27T01:59:02.062Z,16.18
2018-04-27T02:01:28.665Z,16.23
2018-04-27T02:03:56.338Z,16.32
2018-04-27T02:06:23.097Z,16.22
2018-04-27T02:08:49.583Z,16.04
2018-04-27T02:11:16.245Z,16.09
2018-04-27T02:13:46.291Z,16.04
2018-04-27T02:16:12.945Z,16.01
2018-04-27T02:18:39.637Z,16.09
2018-04-27T02:21:06.275Z,15.68
2018-04-27T02:23:32.869Z,15.68
2018-04-27T02:25:59.497Z,15.76
2018-04-27T02:28:26.227Z,15.74
2018-04-27T02:30:53.048Z,15.57
2018-04-27T02:33:19.705Z,15.59
2018-04-27T02:35:54.370Z,15.59
2018-04-27T02:38:21.025Z,15.60
2018-04-27T02:40:47.709Z,16.00
2018-04-27T02:43:14.442Z,15.56
2018-04-27T02:45:44.665Z,15.09
2018-04-27T02:48:11.333Z,15.09
2018-04-27T02:50:37.988Z,15.34
2018-04-27T02:53:04.993Z,15.25
2018-04-27T02:55:31.687Z,15.19
2018-04-27T02:57:58.341Z,15.55
2018-04-27T03:00:25.026Z,15.64
2018-04-27T03:02:52.037Z,15.79
2018-04-27T03:05:24.809Z,15.77
2018-04-27T03:07:51.514Z,15.43
2018-04-27T03:10:18.177Z,15.70
2018-04-27T03:12:44.905Z,15.90
2018-04-27T03:15:14.836Z,15.80
2018-04-27T03:17:41.564Z,15.82
2018-04-27T03:20:08.286Z,15.56
2018-04-27T03:22:34.947Z,15.33
2018-04-27T03:25:02.669Z,15.37
2018-04-27T03:27:29.744Z,15.71
2018-04-27T03:29:56.344Z,15.72
2018-04-27T03:32:23.113Z,15.84
2018-04-27T03:34:53.141Z,15.94
2018-04-27T03:37:19.870Z,15.85
2018-04-27T03:39:47.258Z,16.04
2018-04-27T03:42:14.096Z,16.13
2018-04-27T03:44:43.918Z,16.10
2018-04-27T03:47:10.555Z,16.25
2018-04-27T03:49:37.202Z,16.11
2018-04-27T03:52:03.805Z,16.42
2018-04-27T03:54:34.134Z,16.18
2018-04-27T03:57:01.462Z,15.78
2018-04-27T03:59:40.602Z,15.87
2018-04-27T04:02:19.468Z,15.38
2018-04-27T04:04:59.298Z,15.54
2018-04-27T04:07:25.840Z,16.00
2018-04-27T04:09:52.518Z,15.79
2018-04-27T04:12:19.229Z,15.90
2018-04-27T04:14:46.475Z,15.98
2018-04-27T04:17:13.130Z,15.94
2018-04-27T04:19:39.693Z,16.25
2018-04-27T04:22:06.439Z,16.36
2018-04-27T04:24:36.561Z,15.99
2018-04-27T04:27:03.769Z,16.32
2018-04-27T04:29:30.417Z,16.34
2018-04-27T04:31:57.091Z,16.54
2018-04-27T04:34:24.302Z,16.73
2018-04-27T04:36:51.395Z,16.96
2018-04-27T04:39:18.697Z,16.93
2018-04-27T04:41:45.438Z,17.38
2018-04-27T04:44:12.213Z,17.14
2018-04-27T04:46:38.884Z,17.46
2018-04-27T04:49:05.541Z,17.80
2018-04-27T04:51:32.221Z,17.97
2018-04-27T04:54:02.444Z,18.05
2018-04-27T04:56:29.109Z,17.94
2018-04-27T04:58:55.658Z,17.77
2018-04-27T05:01:22.273Z,17.91
2018-04-27T05:03:50.287Z,18.00
2018-04-27T05:06:17.105Z,17.85
2018-04-27T05:08:43.646Z,17.78
2018-04-27T05:11:10.131Z,17.93
2018-04-27T05:13:37.757Z,17.72
2018-04-27T05:16:04.426Z,18.17
2018-04-27T05:18:37.750Z,18.40
2018-04-27T05:21:04.546Z,18.28
2018-04-27T05:23:32.416Z,18.45
2018-04-27T05:25:59.206Z,18.63
2018-04-27T05:28:25.907Z,18.28
2018-04-27T05:30:52.613Z,18.84
2018-04-27T05:33:19.448Z,18.74
2018-04-27T05:35:46.436Z,18.67
2018-04-27T05:38:13.685Z,18.78
2018-04-27T05:40:40.379Z,18.78
2018-04-27T05:43:07.149Z,19.28
2018-04-27T05:45:33.743Z,19.47
2018-04-27T05:48:00.350Z,19.23
2018-04-27T05:50:26.988Z,19.24
2018-04-27T05:52:53.928Z,19.48
2018-04-27T05:55:27.503Z,19.28
2018-04-27T05:57:54.565Z,19.49
2018-04-27T06:00:21.229Z,19.56
2018-04-27T06:02:48.014Z,20.33
2018-04-27T06:05:15.957Z,20.35
2018-04-27T06:07:42.672Z,20.32
2018-04-27T06:10:09.399Z,21.14
2018-04-27T06:12:37.010Z,21.30
2018-04-27T06:15:03.861Z,21.26
2018-04-27T06:17:30.623Z,20.28
2018-04-27T06:19:57.305Z,20.01
2018-04-27T06:22:23.862Z,20.11
2018-04-27T06:24:53.992Z,20.67
2018-04-27T06:27:20.602Z,20.21
2018-04-27T06:29:47.645Z,21.00
2018-04-27T06:32:14.567Z,21.59
2018-04-27T06:34:41.260Z,21.40
2018-04-27T06:37:08.348Z,20.68
2018-04-27T06:39:35.473Z,21.35
2018-04-27T06:42:02.110Z,21.74
2018-04-27T06:44:32.541Z,21.67
2018-04-27T06:46:59.236Z,21.19
2018-04-27T06:49:25.783Z,22.18
2018-04-27T06:51:52.408Z,21.40
2018-04-27T06:54:19.362Z,21.90
2018-04-27T06:56:46.060Z,21.24
2018-04-27T06:59:12.635Z,21.67
2018-04-27T07:01:39.217Z,22.65
2018-04-27T07:04:06.768Z,22.91
2018-04-27T07:06:33.380Z,22.36
2018-04-27T07:09:00.997Z,22.75
2018-04-27T07:11:27.750Z,22.68
2018-04-27T07:13:56.105Z,22.87
2018-04-27T07:16:22.933Z,23.58
2018-04-27T07:18:49.672Z,22.79
2018-04-27T07:21:16.199Z,23.47
2018-04-27T07:23:42.961Z,23.89
2018-04-27T07:26:10.287Z,23.24
2018-04-27T07:28:37.186Z,23.76
2018-04-27T07:31:03.817Z,23.67
2018-04-27T07:33:31.205Z,24.09
2018-04-27T07:35:57.979Z,24.29
2018-04-27T07:38:24.674Z,23.84
2018-04-27T07:40:51.419Z,24.21
2018-04-27T07:43:19.234Z,24.33
2018-04-27T07:45:45.936Z,25.05
2018-04-27T07:48:12.564Z,25.19
2018-04-27T07:50:39.250Z,25.50
2018-04-27T07:53:09.749Z,25.94
2018-04-27T07:55:36.624Z,25.74
2018-04-27T07:58:03.585Z,25.88
2018-04-27T08:00:30.250Z,25.91
2018-04-27T08:02:57.181Z,26.31
2018-04-27T08:05:23.943Z,26.33
2018-04-27T08:07:51.392Z,26.12
2018-04-27T08:10:18.162Z,26.61
2018-04-27T08:12:48.276Z,26.10
2018-04-27T08:15:14.953Z,26.08
2018-04-27T08:17:41.615Z,25.88
2018-04-27T08:20:08.262Z,26.99
2018-04-27T08:22:37.817Z,26.66
2018-04-27T08:25:04.418Z,27.27
2018-04-27T08:27:31.242Z,26.68
2018-04-27T08:29:57.971Z,26.66
2018-04-27T08:32:24.646Z,27.17
2018-04-27T08:34:51.421Z,27.95
2018-04-27T08:37:18.575Z,27.59
2018-04-27T08:39:45.605Z,27.29
2018-04-27T08:42:12.294Z,27.36
2018-04-27T08:44:43.972Z,27.74
2018-04-27T08:47:10.639Z,27.56
2018-04-27T08:49:37.349Z,27.80
2018-04-27T08:52:04.325Z,28.00
2018-04-27T08:54:33.051Z,28.19
2018-04-27T08:56:59.808Z,28.45
2018-04-27T08:59:26.594Z,28.31
2018-04-27T09:01:53.452Z,27.45
2018-04-27T09:04:21.326Z,27.08
2018-04-27T09:06:47.996Z,26.50
2018-04-27T09:09:14.883Z,27.81
2018-04-27T09:11:41.715Z,27.90
2018-04-27T09:14:08.685Z,27.84
2018-04-27T09:16:35.527Z,28.97
2018-04-27T09:19:02.262Z,28.17
2018-04-27T09:21:29.051Z,27.80
2018-04-27T09:23:55.792Z,27.21
2018-04-27T09:26:22.703Z,27.72
2018-04-27T09:28:49.817Z,27.57
2018-04-27T09:31:16.751Z,27.36
2018-04-27T09:33:43.956Z,27.23
2018-04-27T09:36:10.699Z,27.20
2018-04-27T09:38:37.342Z,27.05
2018-04-27T09:41:04.283Z,27.29
2018-04-27T09:43:31.172Z,27.14
2018-04-27T09:45:58.630Z,26.87
2018-04-27T09:48:25.308Z,27.18
2018-04-27T09:50:52.059Z,28.42
2018-04-27T09:53:20.299Z,28.23
2018-04-27T09:55:47.123Z,27.57
2018-04-27T09:58:13.816Z,27.93
2018-04-27T10:00:40.563Z,27.68
2018-04-27T10:03:08.645Z,27.05
2018-04-27T10:05:36.207Z,27.52
2018-04-27T10:08:02.860Z,27.35
2018-04-27T10:10:29.685Z,26.87
2018-04-27T10:12:57.939Z,26.32
2018-04-27T10:15:25.265Z,28.07
2018-04-27T10:17:52.328Z,27.44
2018-04-27T10:20:19.226Z,28.20
2018-04-27T10:22:49.703Z,28.27
2018-04-27T10:25:16.382Z,27.70
2018-04-27T10:27:43.108Z,28.57
2018-04-27T10:30:10.078Z,29.04
2018-04-27T10:32:40.541Z,28.72
2018-04-27T10:35:07.526Z,28.48
2018-04-27T10:37:34.533Z,27.80
2018-04-27T10:40:01.161Z,27.31
2018-04-27T10:42:31.791Z,28.63
2018-04-27T10:44:58.417Z,28.67
2018-04-27T10:47:25.150Z,29.39
2018-04-27T10:49:51.719Z,28.30
2018-04-27T10:52:19.324Z,28.85
2018-04-27T10:54:46.241Z,27.99
2018-04-27T10:57:12.830Z,27.85
2018-04-27T10:59:39.403Z,28.62
2018-04-27T11:02:05.989Z,29.44
2018-04-27T11:04:36.244Z,28.14
2018-04-27T11:07:02.989Z,28.06
2018-04-27T11:09:29.617Z,27.36
2018-04-27T11:11:56.182Z,27.76
2018-04-27T11:14:26.363Z,28.42
2018-04-27T11:16:54.157Z,28.28
2018-04-27T11:19:20.386Z,28.89
2018-04-27T11:21:46.938Z,28.54
2018-04-27T11:24:17.110Z,27.09
2018-04-27T11:26:49.757Z,27.25
2018-04-27T11:29:16.363Z,27.54
2018-04-27T11:31:43.049Z,26.78
2018-04-27T11:34:09.782Z,25.64
2018-04-27T11:36:36.579Z,26.58
2018-04-27T11:39:03.089Z,26.28
2018-04-27T11:41:29.746Z,27.71
2018-04-27T11:43:59.390Z,27.35
2018-04-27T11:46:25.991Z,25.89
2018-04-27T11:48:52.652Z,26.35
2018-04-27T11:51:19.284Z,27.10
2018-04-27T11:53:47.112Z,26.65
2018-04-27T11:56:13.891Z,26.84
2018-04-27T11:58:40.583Z,27.95
2018-04-27T12:01:07.397Z,28.31
2018-04-27T12:03:34.131Z,29.49
2018-04-27T12:06:00.730Z,28.81
2018-04-27T12:08:27.334Z,29.25
2018-04-27T12:10:53.912Z,30.37
2018-04-27T12:13:20.961Z,29.12
2018-04-27T12:15:47.668Z,28.31
2018-04-27T12:18:15.117Z,28.17
2018-04-27T12:20:41.869Z,28.54
2018-04-27T12:23:09.041Z,29.95
2018-04-27T12:25:35.814Z,29.61
2018-04-27T12:28:02.446Z,28.87
2018-04-27T12:30:29.869Z,28.06
2018-04-27T12:33:00.686Z,27.43
2018-04-27T12:35:27.333Z,26.66
2018-04-27T12:37:54.254Z,28.46
2018-04-27T12:40:20.809Z,27.49
2018-04-27T12:42:47.637Z,28.19
2018-04-27T12:45:14.624Z,27.88
2018-04-27T12:47:41.237Z,27.01
2018-04-27T12:50:08.444Z,26.66
2018-04-27T12:52:36.476Z,27.80
2018-04-27T12:55:03.918Z,27.62
2018-04-27T12:57:31.270Z,28.24
2018-04-27T12:59:58.085Z,26.85
2018-04-27T13:02:25.017Z,26.62
2018-04-27T13:04:51.948Z,26.85
2018-04-27T13:07:18.594Z,25.97
2018-04-27T13:09:45.366Z,26.37
2018-04-27T13:12:15.267Z,25.38
2018-04-27T13:14:41.857Z,25.33
2018-04-27T13:17:08.531Z,27.00
2018-04-27T13:19:35.393Z,26.68
2018-04-27T13:22:05.428Z,26.66
2018-04-27T13:24:32.710Z,25.75
2018-04-27T13:26:59.417Z,25.55
2018-04-27T13:29:26.107Z,25.68
2018-04-27T13:31:52.748Z,26.19
2018-04-27T13:34:19.384Z,26.59
2018-04-27T13:36:46.088Z,26.55
2018-04-27T13:39:13.314Z,24.83
2018-04-27T13:41:40.877Z,25.96
2018-04-27T13:44:07.695Z,26.21
2018-04-27T13:46:34.657Z,24.77
2018-04-27T13:49:01.339Z,25.60
2018-04-27T13:51:27.965Z,25.73
2018-04-27T13:53:54.896Z,26.19
2018-04-27T13:56:21.576Z,25.93
2018-04-27T13:58:48.238Z,24.90
2018-04-27T14:01:14.779Z,23.55
2018-04-27T14:03:41.570Z,24.81
2018-04-27T14:06:08.216Z,25.37
2018-04-27T14:08:34.921Z,25.85
2018-04-27T14:11:01.590Z,24.62
2018-04-27T14:13:28.763Z,25.34
2018-04-27T14:15:55.707Z,23.73
2018-04-27T14:18:22.448Z,24.53
2018-04-27T14:20:49.089Z,24.81
2018-04-27T14:23:15.957Z,25.87
2018-04-27T14:25:42.720Z,24.82
2018-04-27T14:28:09.304Z,25.87
2018-04-27T14:30:36.339Z,25.12
2018-04-27T14:33:03.995Z,25.69
2018-04-27T14:35:30.729Z,25.78
2018-04-27T14:37:57.409Z,26.70
2018-04-27T14:40:23.992Z,25.79
2018-04-27T14:42:54.510Z,26.02
2018-04-27T14:45:21.614Z,25.63
2018-04-27T14:47:48.814Z,25.99
2018-04-27T14:50:15.498Z,26.41
2018-04-27T14:52:45.308Z,26.58
2018-04-27T14:55:11.947Z,26.15
2018-04-27T14:57:38.582Z,26.77
2018-04-27T15:00:05.248Z,26.20
2018-04-27T15:02:32.966Z,25.86
2018-04-27T15:04:59.669Z,25.24
2018-04-27T15:07:26.265Z,26.64
2018-04-27T15:09:53.100Z,26.72
2018-04-27T15:12:19.920Z,26.47
2018-04-27T15:14:46.749Z,26.63
2018-04-27T15:17:13.707Z,26.46
2018-04-27T15:19:40.638Z,26.08
2018-04-27T15:22:08.560Z,26.46
2018-04-27T15:24:35.074Z,26.76
2018-04-27T15:27:01.995Z,25.11
2018-04-27T15:29:28.770Z,25.77
2018-04-27T15:31:58.534Z,27.17
2018-04-27T15:34:25.280Z,26.18
2018-04-27T15:36:51.944Z,25.69
2018-04-27T15:39:18.508Z,25.25
2018-04-27T15:41:48.371Z,23.80
2018-04-27T15:44:15.193Z,23.62
2018-04-27T15:46:42.251Z,23.32
2018-04-27T15:49:08.866Z,23.27
2018-04-27T15:51:38.699Z,23.01
2018-04-27T15:54:05.564Z,22.31
2018-04-27T15:56:32.270Z,22.74
2018-04-27T15:58:59.020Z,23.22
2018-04-27T16:01:25.670Z,22.84
2018-04-27T16:03:52.367Z,22.49
2018-04-27T16:06:19.102Z,22.38
2018-04-27T16:08:45.646Z,22.57
2018-04-27T16:11:12.213Z,22.73
2018-04-27T16:13:50.649Z,22.22
2018-04-27T16:16:18.060Z,22.80
2018-04-27T16:18:44.657Z,22.33
2018-04-27T16:21:11.282Z,22.55
2018-04-27T16:23:44.819Z,22.14
2018-04-27T16:26:11.455Z,22.10
2018-04-27T16:28:39.430Z,21.96
2018-04-27T16:31:06.611Z,21.94
2018-04-27T16:33:39.072Z,21.63
2018-04-27T16:36:05.723Z,21.72
2018-04-27T16:38:32.262Z,21.46
2018-04-27T16:40:58.895Z,21.66
2018-04-27T16:43:28.986Z,21.54
2018-04-27T16:45:55.595Z,21.34
2018-04-27T16:48:22.199Z,21.44
2018-04-27T16:50:48.836Z,20.97
2018-04-27T16:53:19.094Z,21.15
2018-04-27T16:55:45.745Z,21.16
2018-04-27T16:58:12.298Z,20.92
2018-04-27T17:00:38.870Z,20.80
2018-04-27T17:03:09.609Z,20.82
2018-04-27T17:05:36.315Z,20.38
2018-04-27T17:08:03.126Z,20.38
2018-04-27T17:10:29.670Z,20.25
2018-04-27T17:12:57.354Z,20.14
2018-04-27T17:15:23.984Z,20.10
2018-04-27T17:17:50.541Z,19.98
2018-04-27T17:20:17.175Z,20.02
2018-04-27T17:22:44.941Z,19.87
2018-04-27T17:25:11.501Z,19.89
2018-04-27T17:27:38.081Z,19.79
2018-04-27T17:30:04.663Z,19.79
2018-04-27T17:32:35.267Z,19.74
2018-04-27T17:35:02.014Z,19.67
2018-04-27T17:37:28.544Z,19.70
2018-04-27T17:39:55.176Z,19.67
2018-04-27T17:42:25.558Z,19.55
2018-04-27T17:44:52.129Z,19.52
2018-04-27T17:47:19.316Z,19.53
2018-04-27T17:49:46.003Z,19.51
2018-04-27T17:52:14.025Z,19.52
2018-04-27T17:54:40.742Z,19.47
2018-04-27T17:57:07.363Z,19.42
2018-04-27T17:59:34.147Z,19.46
2018-04-27T18:02:04.217Z,19.42
2018-04-27T18:04:31.502Z,19.41
2018-04-27T18:06:58.201Z,19.32
2018-04-27T18:09:24.977Z,19.35
2018-04-27T18:11:55.410Z,19.35
2018-04-27T18:14:22.041Z,19.25
2018-04-27T18:16:48.689Z,19.30
2018-04-27T18:19:15.254Z,19.35
2018-04-27T18:21:42.901Z,19.29
2018-04-27T18:24:09.837Z,19.19
2018-04-27T18:26:36.465Z,19.37
2018-04-27T18:29:03.175Z,19.48
2018-04-27T18:31:33.254Z,19.70
2018-04-27T18:33:59.858Z,19.18
2018-04-27T18:36:26.476Z,18.96
2018-04-27T18:38:53.058Z,19.03
2018-04-27T18:41:21.077Z,18.42
2018-04-27T18:43:47.838Z,19.22
2018-04-27T18:46:14.645Z,18.78
2018-04-27T18:48:41.420Z,18.93
2018-04-27T18:51:08.042Z,18.75
2018-04-27T18:53:34.659Z,18.60
2018-04-27T18:56:02.088Z,18.73
2018-04-27T18:58:28.726Z,19.77
2018-04-27T19:00:55.303Z,19.14
2018-04-27T19:03:25.733Z,19.32
2018-04-27T19:05:52.578Z,18.67
2018-04-27T19:08:19.239Z,19.68
2018-04-27T19:10:46.020Z,19.09
2018-04-27T19:13:16.935Z,18.74
2018-04-27T19:15:43.606Z,19.49
2018-04-27T19:18:13.202Z,19.23
2018-04-27T19:20:40.643Z,19.83
2018-04-27T19:23:08.312Z,18.81
2018-04-27T19:25:41.940Z,18.69
2018-04-27T19:28:08.666Z,18.74
2018-04-27T19:30:35.339Z,18.14
2018-04-27T19:33:05.349Z,17.98
2018-04-27T19:35:32.030Z,17.43
2018-04-27T19:37:58.655Z,17.26
2018-04-27T19:40:25.312Z,17.71
2018-04-27T19:42:53.130Z,17.73
2018-04-27T19:45:19.666Z,17.93
2018-04-27T19:47:46.285Z,17.61
2018-04-27T19:50:12.942Z,17.79
2018-04-27T19:52:39.786Z,17.81
2018-04-27T19:55:06.370Z,17.64
2018-04-27T19:57:33.022Z,17.45
2018-04-27T20:02:49.835Z,17.66
2018-04-27T20:05:17.313Z,17.77
2018-04-27T20:07:44.738Z,17.37
2018-04-27T20:10:11.329Z,17.24
2018-04-27T20:12:41.402Z,16.77
2018-04-27T20:15:08.023Z,17.25
2018-04-27T20:17:36.566Z,17.13
2018-04-27T20:20:05.047Z,17.44
2018-04-27T20:22:31.789Z,17.42
2018-04-27T20:24:58.365Z,17.47
2018-04-27T20:27:27.913Z,17.33
2018-04-27T20:29:54.467Z,17.54
2018-04-27T20:32:24.430Z,17.59
2018-04-27T20:34:51.106Z,17.54
2018-04-27T20:37:17.783Z,17.85
2018-04-27T20:39:44.300Z,17.93
2018-04-27T20:42:11.334Z,17.61
2018-04-27T20:44:37.930Z,17.74
2018-04-27T20:47:04.554Z,17.56
2018-04-27T20:49:31.158Z,17.62
2018-04-27T20:52:01.837Z,17.35
2018-04-27T20:54:38.922Z,17.19
2018-04-27T20:57:05.605Z,16.89
2018-04-27T20:59:32.421Z,17.04
2018-04-27T21:02:02.393Z,16.73
2018-04-27T21:04:29.039Z,16.87
2018-04-27T21:06:56.521Z,16.56
2018-04-27T21:09:23.064Z,16.82
2018-04-27T21:11:55.323Z,16.97
2018-04-27T21:14:22.132Z,16.82
2018-04-27T21:16:48.889Z,17.00
2018-04-27T21:19:15.474Z,17.11
2018-04-27T21:21:42.316Z,16.99
2018-04-27T21:24:08.927Z,16.68
2018-04-27T21:26:37.314Z,16.37
2018-04-27T21:29:03.976Z,16.66
2018-04-27T21:31:30.643Z,16.85
2018-04-27T21:33:57.290Z,16.86
2018-04-27T21:36:34.093Z,16.52
2018-04-27T21:39:04.450Z,16.67
2018-04-27T21:41:38.660Z,16.16
2018-04-27T21:46:55.406Z,16.42
2018-04-27T21:49:23.152Z,16.44
2018-04-27T21:54:39.095Z,16.40
2018-04-27T21:57:06.761Z,16.56
2018-04-27T21:59:41.013Z,16.61
2018-04-27T22:05:06.657Z,16.44
2018-04-27T22:07:33.438Z,15.85
2018-04-27T22:10:00.065Z,15.86
2018-04-27T22:12:26.948Z,16.04
2018-04-27T22:14:53.549Z,16.06
2018-04-27T22:17:27.109Z,15.91
2018-04-27T22:19:54.282Z,16.15
2018-04-27T22:22:30.771Z,16.02
2018-04-27T22:25:07.205Z,16.40
2018-04-27T22:27:34.723Z,16.46
2018-04-27T22:30:24.153Z,16.13
2018-04-27T22:32:55.806Z,15.95
2018-04-27T22:35:34.165Z,15.66
2018-04-27T22:38:00.805Z,15.87
2018-04-27T22:40:47.136Z,16.01
2018-04-27T22:43:15.382Z,15.82
2018-04-27T22:45:45.000Z,15.88
2018-04-27T22:51:36.043Z,15.97
2018-04-27T22:56:56.468Z,15.88
2018-04-27T22:59:27.899Z,15.69
2018-04-27T23:01:56.511Z,15.45
2018-04-27T23:04:23.195Z,15.61
2018-04-27T23:06:51.787Z,15.33
2018-04-27T23:09:18.388Z,15.39
2018-04-27T23:11:45.109Z,15.61
2018-04-27T23:14:31.120Z,15.68
2018-04-27T23:16:57.774Z,15.20
2018-04-27T23:22:25.527Z,15.39
2018-04-27T23:24:57.322Z,15.42
2018-04-27T23:27:23.872Z,15.16
2018-04-27T23:29:50.525Z,14.47
2018-04-27T23:32:18.369Z,14.49
2018-04-27T23:34:45.151Z,14.83
2018-04-27T23:37:11.747Z,15.00
2018-04-27T23:39:38.475Z,14.83
2018-04-27T23:42:06.318Z,14.96
2018-04-27T23:44:32.989Z,14.88
2018-04-27T23:46:59.557Z,14.75
2018-04-27T23:49:26.184Z,14.68
2018-04-27T23:51:55.877Z,14.50
2018-04-27T23:54:22.565Z,14.69
2018-04-27T23:56:49.127Z,14.61
2018-04-27T23:59:18.397Z,14.83
